• Join FlightAware (Why Join?)
  • Login
  • US Flag 
12:28AM EDT


 

Airport Tracker/Info


-or-


 

Live Flight TrackerFlight Track Log ✈ OPT452 ✈ 08-Jul-2013 ✈ KAMA - KRZR

Flight Track Log - Related Links

Times and Time Zones

All times are in EDT time to prevent confusion due to time zone crossing. See the OPT452 flight status page for this flight to view local times or setup timezone preferences in your user account.

Time Position Orientation Groundspeed Altitude Reporting Facility
EDT Latitude Longitude Course Direction KTS MPH feet Rate Location/Type
02:26PM 35.1836 -101.5653 76° East 262 302 9,900  Level Albuquerque Center
02:27PM 35.2008 -101.4747 77° East 271 312 11,300 1,920 Climbing Albuquerque Center
02:28PM 35.2242 -101.3528 77° East 304 350 13,900 2,340 Climbing Albuquerque Center
02:29PM 35.2417 -101.2550 78° East 300 345 16,200 1,800 Climbing Albuquerque Center
02:30PM 35.2694 -100.9522 85° East  Level Estimated
02:30PM 35.2600 -101.1592 77° East 293 337 17,700  Level Albuquerque Center
02:31PM 35.2773 -100.8265 86° East  Level Estimated
02:31PM 35.2792 -101.0594 77° East 299 344 19,300  Level Albuquerque Center
02:32PM 35.2986 -100.9586 77° East 303 349 20,900 1,560 Climbing Albuquerque Center
02:33PM 35.3172 -100.8589 77° East 302 348 22,500 1,200 Climbing Albuquerque Center
02:34PM 35.3350 -100.7575 78° East 304 350 23,500 960 Climbing Albuquerque Center
02:35PM 35.3564 -100.6406 77° East 324 373 24,600 1,080 Climbing Albuquerque Center
02:36PM 35.3778 -100.5250 77° East 342 394 25,800 1,260 Climbing Albuquerque Center
02:37PM 35.4031 -100.3822 78° East 354 407 27,300 1,320 Climbing Albuquerque Center
02:38PM 35.4250 -100.2631 77° East 358 412 28,600 1,200 Climbing Albuquerque Center
02:40PM 35.4467 -100.1439 77° East 358 412 29,900 1,200 Climbing Albuquerque Center
02:41PM 35.4667 -100.0231 78° East 360 414 31,100 1,080 Climbing Albuquerque Center
02:42PM 35.4883 -99.9047 77° East 357 411 32,200 1,080 Climbing Albuquerque Center
02:43PM 35.5086 -99.7864 78° East 355 409 33,400 1,080 Climbing Albuquerque Center
02:44PM 35.5289 -99.6714 78° East 349 402 34,500 1,020 Climbing Albuquerque Center
02:45PM 35.5517 -99.5331 79° East 345 397 35,600 720 Climbing Albuquerque Center
02:46PM 35.5717 -99.4158 78° East 350 403 36,000 360 Climbing Albuquerque Center
02:47PM 35.5919 -99.2939 78° East 362 417 36,400 420 Climbing Albuquerque Center
02:47PM 35.6039 -99.2214 79° East 366 421 36,700 480 Climbing Kansas City Center
02:48PM 35.6264 -99.0925 78° East 381 438 37,200 420 Climbing Kansas City Center
02:49PM 35.6483 -98.9631 78° East 388 447 37,600 420 Climbing Kansas City Center
02:50PM 35.6694 -98.8328 79° East 390 449 38,100 480 Climbing Kansas City Center
02:51PM 35.6961 -98.6747 78° East 394 453 38,600 420 Climbing Kansas City Center
02:52PM 35.7183 -98.5428 78° East 396 456 39,000 360 Climbing Kansas City Center
02:54PM 35.7403 -98.4100 78° East 397 457 39,400 420 Climbing Kansas City Center
02:55PM 35.7636 -98.2775 78° East 397 457 39,900 420 Climbing Kansas City Center
02:56PM 35.7833 -98.1444 80° East 397 457 40,300 420 Climbing Kansas City Center
02:57PM 35.8069 -98.0061 78° East 396 456 40,800 300 Climbing Kansas City Center
02:58PM 35.8319 -97.8728 77° East 396 456 41,000 60 Climbing Kansas City Center
02:59PM 35.8611 -97.7111 77° East 400 460 41,000  Level Kansas City Center
03:00PM 35.8872 -97.5731 77° East 408 470 41,000  Level Kansas City Center
03:01PM 35.9119 -97.4344 78° East 411 473 41,000  Level Kansas City Center
03:02PM 35.9367 -97.2964 77° East 411 473 41,000  Level Kansas City Center
03:03PM 35.9589 -97.1564 79° East 415 478 41,000  Level Kansas City Center
03:04PM 35.9558 -97.0131 91° East 420 483 41,000  Level Kansas City Center
03:05PM 35.9550 -96.8700 90° East 417 480 41,000  Level Kansas City Center
03:06PM 35.9533 -96.6994 91° East 415 478 41,000  Level Kansas City Center
03:07PM 35.9503 -96.5578 91° East 414 476 41,000  Level Kansas City Center
03:08PM 35.9481 -96.4164 91° East 414 476 41,000  Level Kansas City Center
03:09PM 35.9447 -96.2728 92° East 411 473 41,000  Level Kansas City Center
03:10PM 35.9419 -96.1339 91° East 409 471 41,000  Level Kansas City Center
03:11PM 35.9394 -95.9944 91° East 408 470 41,000  Level Kansas City Center
03:12PM 35.9369 -95.8558 91° East 407 468 41,000  Level Kansas City Center
03:13PM 35.9333 -95.6906 91° East 406 467 41,000  Level Kansas City Center
03:14PM 35.9297 -95.5522 92° East 406 467 41,000  Level Kansas City Center
03:15PM 35.9264 -95.4161 92° East 404 465 41,000  Level Kansas City Center
03:16PM 35.9239 -95.2789 91° East 402 463 41,000  Level Kansas City Center
03:17PM 35.9203 -95.1408 92° East 403 464 41,000  Level Kansas City Center
03:18PM 35.9164 -94.9750 92° East 405 466 41,000  Level Kansas City Center
03:19PM 35.9136 -94.8386 91° East 402 463 41,000  Level Kansas City Center
03:20PM 35.9097 -94.7036 92° East 404 465 41,000  Level Memphis Center
03:21PM 35.9042 -94.5675 93° East 404 465 41,000  Level Memphis Center
03:22PM 35.9025 -94.4289 91° East 404 465 41,000  Level Memphis Center
03:23PM 35.8964 -94.2956 93° East 404 465 41,000  Level Memphis Center
03:24PM 35.8944 -94.1569 91° East 404 465 41,000  Level Memphis Center
03:25PM 35.8858 -94.0233 95° East 404 465 41,000  Level Memphis Center
03:26PM 35.8836 -93.8875 91° East 404 465 41,000  Level Memphis Center
03:27PM 35.8792 -93.7489 92° East 404 465 41,000  Level Memphis Center
03:28PM 35.8725 -93.6078 93° East 404 465 41,000  Level Memphis Center
03:29PM 35.8675 -93.4744 93° East 404 465 41,000  Level Memphis Center
03:30PM 35.8644 -93.3386 92° East 398 458 41,000  Level Memphis Center
03:31PM 35.8572 -93.2000 94° East 398 458 41,000  Level Memphis Center
03:32PM 35.8519 -93.0642 93° East 398 458 41,000  Level Memphis Center
03:33PM 35.8467 -92.9281 93° East 398 458 41,000  Level Memphis Center
03:34PM 35.8408 -92.7922 93° East 398 458 41,000  Level Memphis Center
03:35PM 35.8353 -92.6564 93° East 398 458 41,000  Level Memphis Center
03:36PM 35.8292 -92.5231 93° East 398 458 41,000  Level Memphis Center
03:37PM 35.8211 -92.3872 94° East 398 458 41,000  Level Memphis Center
03:38PM 35.8128 -92.2539 94° East 398 458 41,000  Level Memphis Center
03:39PM 35.8083 -92.1181 92° East 393 452 41,000  Level Memphis Center
03:40PM 35.8019 -91.9822 93° East 393 452 41,000  Level Memphis Center
03:41PM 35.7953 -91.8492 93° East 393 452 41,000  Level Memphis Center
03:42PM 35.7864 -91.7133 95° East 393 452 41,000  Level Memphis Center
03:43PM 35.7814 -91.5803 93° East 387 445 41,000  Level Memphis Center
03:44PM 35.7722 -91.4469 95° East 387 445 41,000  Level Memphis Center
03:45PM 35.7586 -91.3317 98° East 382 440 41,000  Level Memphis Center
03:46PM 35.7533 -91.2011 93° East 387 445 41,000  Level Memphis Center
03:47PM 35.7439 -91.0656 95° East 387 445 41,000  Level Memphis Center
03:48PM 35.7361 -90.9375 94° East 387 445 41,000  Level Memphis Center
03:49PM 35.7283 -90.8019 94° East 387 445 41,000  Level Memphis Center
03:50PM 35.7203 -90.6717 94° East 387 445 41,000  Level Memphis Center
03:51PM 35.7122 -90.5411 94° East 387 445 41,000  Level Memphis Center
03:52PM 35.7019 -90.4081 95° East 387 445 41,000  Level Memphis Center
03:53PM 35.6936 -90.2778 94° East 387 445 41,000  Level Memphis Center
03:54PM 35.6933 -90.1319 90° East 387 445 41,000  Level Memphis Center
03:55PM 35.6847 -89.9992 95° East 387 445 41,000  Level Memphis Center
03:56PM 35.6758 -89.8664 95° East 387 445 41,000  Level Memphis Center
03:57PM 35.6669 -89.7336 95° East 387 445 41,000  Level Memphis Center
03:58PM 35.6558 -89.6008 96° East 387 445 41,000  Level Memphis Center
03:59PM 35.6467 -89.4858 96° East 387 445 41,000  Level Memphis Center
04:00PM 35.6372 -89.3531 95° East 387 445 41,000  Level Memphis Center
04:01PM 35.6278 -89.2203 95° East 387 445 41,000  Level Memphis Center
04:02PM 35.6183 -89.0853 95° East 387 445 41,000  Level Memphis Center
04:03PM 35.6083 -88.9550 95° East 387 445 41,000  Level Memphis Center
04:04PM 35.5964 -88.8150 96° East 387 445 41,000  Level Memphis Center
04:05PM 35.5822 -88.6925 98° East 387 445 41,000  Level Memphis Center
04:06PM 35.5700 -88.5575 96° East 392 451 41,000  Level Memphis Center
04:07PM 35.5617 -88.4275 94° East 392 451 41,000  Level Memphis Center
04:08PM 35.5514 -88.2953 95° East 386 444 41,000  Level Memphis Center
04:09PM 35.5406 -88.1628 96° East 386 444 41,000  Level Memphis Center
04:10PM 35.5278 -88.0228 96° East 380 437 41,000  Level Memphis Center
04:11PM 35.5169 -87.9033 96° East 391 450 41,000  Level Memphis Center
04:12PM 35.5058 -87.7658 96° East 391 450 41,000  Level Memphis Center
04:13PM 35.4928 -87.6361 97° East 391 450 41,000  Level Memphis Center
04:14PM 35.4811 -87.4989 96° East 391 450 41,000  Level Memphis Center
04:15PM 35.4697 -87.3642 96° East 391 450 41,000  Level Memphis Center
04:16PM 35.4558 -87.2297 97° East 386 444 41,000 -120 Level Memphis Center
04:17PM 35.4442 -87.0975 96° East 386 444 40,800 -660 Descending Memphis Center
04:18PM 35.4322 -86.9631 96° East 386 444 39,700 -1,200 Descending Memphis Center
04:19PM 35.4203 -86.8361 97° East 386 444 38,500 -1,140 Descending Memphis Center
04:20PM 35.4058 -86.6964 97° East 386 444 37,500 -1,200 Descending Memphis Center
04:21PM 35.3936 -86.5672 97° East 381 438 36,100 -1,860 Descending Memphis Center
04:22PM 35.3811 -86.4328 96° East 386 444 33,800 -2,400 Descending Memphis Center
04:23PM 35.3683 -86.2908 96° East 397 457 31,300 -2,700 Descending Memphis Center
04:24PM 35.3531 -86.1464 97° East 418 481 28,500 -2,760 Descending Memphis Center
04:25PM 35.3375 -85.9997 97° East 423 487 25,800 -2,880 Descending Memphis Center
04:26PM 35.3239 -85.8528 96° East 428 493 22,800 -3,120 Descending Memphis Center
04:27PM 35.3103 -85.7111 97° East 422 486 19,600 -2,760 Descending Memphis Center
04:30PM 35.2806 -85.4381 98° East 376 433 13,800 -2,400 Descending Atlanta Center
04:31PM 35.2692 -85.3311 97° East 339 390 11,700 -2,040 Descending Atlanta Center
04:32PM 35.2597 -85.2292 96° East 313 360 9,800 -1,860 Descending Atlanta Center
04:33PM 35.2481 -85.1350 99° East 296 341 8,000 -1,740 Descending Atlanta Center
04:34PM 35.2386 -85.0431 97° East 281 323 6,400 -1,620 Descending Atlanta Center
04:35PM 35.2289 -84.9542 98° East 268 308 4,800 -1,200 Descending Atlanta Center
04:36PM 35.2189 -84.8600 97° East 262 302 4,000 -840 Descending Atlanta Center